createdAt,value
2022-12-18T00:01:07.311Z,101200.61
2022-12-18T00:03:58.207Z,101200.16
2022-12-18T00:06:48.820Z,101197.10
2022-12-18T00:09:40.650Z,101192.74
2022-12-18T00:12:31.433Z,101196.89
2022-12-18T00:15:22.350Z,101192.50
2022-12-18T00:18:16.057Z,101197.40
2022-12-18T00:21:10.532Z,101202.63
2022-12-18T00:24:01.607Z,101205.17
2022-12-18T00:26:52.045Z,101198.95
2022-12-18T00:29:42.770Z,101199.88
2022-12-18T00:32:33.260Z,101204.40
2022-12-18T00:35:23.942Z,101209.64
2022-12-18T00:38:14.412Z,101208.21
2022-12-18T00:41:05.103Z,101205.80
2022-12-18T00:43:55.660Z,101199.51
2022-12-18T00:46:46.738Z,101191.66
2022-12-18T00:49:37.363Z,101188.26
2022-12-18T00:52:27.964Z,101184.11
2022-12-18T00:55:19.187Z,101175.79
2022-12-18T00:58:11.617Z,101173.27
2022-12-18T01:01:02.236Z,101170.52
2022-12-18T01:03:52.752Z,101162.83
2022-12-18T01:06:44.041Z,101162.00
2022-12-18T01:09:35.871Z,101153.61
2022-12-18T01:12:26.098Z,101151.60
2022-12-18T01:15:17.466Z,101152.44
2022-12-18T01:18:08.358Z,101146.20
2022-12-18T01:20:59.089Z,101143.09
2022-12-18T01:23:53.135Z,101142.56
2022-12-18T01:26:43.843Z,101132.60
2022-12-18T01:29:34.555Z,101132.75
2022-12-18T01:32:25.225Z,101134.14
2022-12-18T01:35:15.743Z,101124.80
2022-12-18T01:38:06.346Z,101118.71
2022-12-18T01:41:00.635Z,101115.73
2022-12-18T01:43:53.948Z,101107.95
2022-12-18T01:46:44.387Z,101095.17
2022-12-18T01:49:34.936Z,101086.11
2022-12-18T01:52:27.049Z,101073.88
2022-12-18T01:55:18.959Z,101067.59
2022-12-18T01:58:10.334Z,101070.45
2022-12-18T02:01:01.452Z,101056.72
2022-12-18T02:03:52.553Z,101038.76
2022-12-18T02:06:44.036Z,101028.33
2022-12-18T02:09:38.991Z,101022.69
2022-12-18T02:12:33.570Z,101022.12
2022-12-18T02:15:26.677Z,101027.38
2022-12-18T02:18:21.515Z,101032.20
2022-12-18T02:21:15.422Z,101029.05
2022-12-18T02:24:16.367Z,101032.20
2022-12-18T02:27:07.990Z,101031.49
2022-12-18T02:30:00.506Z,101029.02
2022-12-18T02:32:54.599Z,101025.56
2022-12-18T02:35:47.707Z,101019.10
2022-12-18T02:38:38.980Z,101008.58
2022-12-18T02:41:34.250Z,101007.53
2022-12-18T02:44:25.109Z,101008.07
2022-12-18T02:47:16.794Z,101012.13
2022-12-18T02:50:12.197Z,101016.70
2022-12-18T02:53:08.842Z,101010.08
2022-12-18T02:56:04.800Z,101003.90
2022-12-18T02:59:01.765Z,100993.13
2022-12-18T03:02:11.815Z,100976.23
2022-12-18T03:05:04.554Z,100973.42
2022-12-18T03:07:58.928Z,100972.79
2022-12-18T03:10:54.018Z,100966.98
2022-12-18T03:13:46.875Z,100953.32
2022-12-18T03:16:38.962Z,100939.39
2022-12-18T03:19:31.782Z,100933.27
2022-12-18T03:22:24.639Z,100916.98
2022-12-18T03:25:17.253Z,100911.71
2022-12-18T03:28:11.559Z,100903.24
2022-12-18T03:31:04.592Z,100889.38
2022-12-18T03:33:56.627Z,100884.69
2022-12-18T03:36:51.577Z,100889.10
2022-12-18T03:39:42.678Z,100885.09
2022-12-18T03:42:39.458Z,100889.33
2022-12-18T03:45:36.896Z,100902.48
2022-12-18T03:48:30.634Z,100896.68
2022-12-18T03:51:27.477Z,100892.51
2022-12-18T03:54:19.237Z,100906.08
2022-12-18T03:57:17.163Z,100903.89
2022-12-18T04:00:10.902Z,100895.73
2022-12-18T04:03:22.613Z,100884.52
2022-12-18T04:06:16.650Z,100866.21
2022-12-18T04:09:07.960Z,100865.11
2022-12-18T04:12:01.125Z,100866.16
2022-12-18T04:14:51.768Z,100873.30
2022-12-18T04:17:49.267Z,100868.85
2022-12-18T04:20:41.338Z,100867.96
2022-12-18T04:23:32.554Z,100860.84
2022-12-18T04:26:23.462Z,100849.17
2022-12-18T04:29:35.827Z,100848.45
2022-12-18T04:32:26.502Z,100832.63
2022-12-18T04:35:17.092Z,100825.06
2022-12-18T04:38:07.913Z,100810.21
2022-12-18T04:40:58.363Z,100802.92
2022-12-18T04:43:50.438Z,100804.36
2022-12-18T04:46:40.976Z,100797.77
2022-12-18T04:49:31.494Z,100794.90
2022-12-18T04:52:25.937Z,100790.48
2022-12-18T04:55:16.473Z,100788.88
2022-12-18T04:58:07.118Z,100778.86
2022-12-18T05:00:57.600Z,100773.93
2022-12-18T05:03:48.301Z,100768.38
2022-12-18T05:06:38.868Z,100760.35
2022-12-18T05:09:29.437Z,100744.66
2022-12-18T05:12:19.914Z,100743.92
2022-12-18T05:15:11.201Z,100736.30
2022-12-18T05:18:02.484Z,100726.00
2022-12-18T05:20:52.995Z,100704.11
2022-12-18T05:23:43.841Z,100698.26
2022-12-18T05:26:34.745Z,100692.66
2022-12-18T05:29:25.340Z,100689.20
2022-12-18T05:32:15.741Z,100691.33
2022-12-18T05:35:07.118Z,100674.80
2022-12-18T05:37:57.571Z,100659.66
2022-12-18T05:40:49.397Z,100659.54
2022-12-18T05:43:41.293Z,100652.48
2022-12-18T05:46:32.169Z,100650.19
2022-12-18T05:49:22.681Z,100649.09
2022-12-18T05:52:13.211Z,100636.11
2022-12-18T05:55:03.756Z,100644.34
2022-12-18T05:57:54.417Z,100649.25
2022-12-18T06:00:46.141Z,100651.44
2022-12-18T06:03:36.746Z,100653.98
2022-12-18T06:06:28.290Z,100654.45
2022-12-18T06:09:18.935Z,100649.61
2022-12-18T06:12:09.722Z,100646.52
2022-12-18T06:15:00.193Z,100635.73
2022-12-18T06:17:50.732Z,100621.84
2022-12-18T06:20:42.568Z,100618.30
2022-12-18T06:23:33.122Z,100612.08
2022-12-18T06:26:28.079Z,100610.96
2022-12-18T06:29:19.346Z,100603.48
2022-12-18T06:32:10.196Z,100604.42
2022-12-18T06:35:00.683Z,100594.79
2022-12-18T06:37:51.228Z,100594.52
2022-12-18T06:40:41.824Z,100589.64
2022-12-18T06:43:32.442Z,100573.16
2022-12-18T06:46:23.272Z,100553.02
2022-12-18T06:49:13.804Z,100547.70
2022-12-18T06:52:04.464Z,100550.02
2022-12-18T06:54:55.091Z,100556.48
2022-12-18T06:57:45.585Z,100548.86
2022-12-18T07:00:36.055Z,100543.81
2022-12-18T07:03:26.593Z,100547.05
2022-12-18T07:06:17.969Z,100540.23
2022-12-18T07:09:08.395Z,100536.84
2022-12-18T07:11:59.032Z,100537.23
2022-12-18T07:14:49.616Z,100524.20
2022-12-18T07:17:40.193Z,100506.29
2022-12-18T07:20:30.704Z,100504.37
2022-12-18T07:23:21.224Z,100500.35
2022-12-18T07:26:12.759Z,100484.04
2022-12-18T07:29:03.293Z,100472.41
2022-12-18T07:31:53.839Z,100464.20
2022-12-18T07:34:44.859Z,100461.52
2022-12-18T07:37:35.396Z,100454.00
2022-12-18T07:40:25.983Z,100448.30
2022-12-18T07:43:16.468Z,100442.51
2022-12-18T07:46:09.508Z,100426.45
2022-12-18T07:49:00.416Z,100412.83
2022-12-18T07:51:50.950Z,100407.19
2022-12-18T07:54:41.533Z,100386.27
2022-12-18T07:57:49.951Z,100383.87
2022-12-18T08:00:41.883Z,100373.14
2022-12-18T08:03:32.409Z,100367.11
2022-12-18T08:06:24.086Z,100355.80
2022-12-18T08:09:15.405Z,100341.33
2022-12-18T08:12:06.325Z,100332.64
2022-12-18T08:14:56.852Z,100325.09
2022-12-18T08:17:47.328Z,100321.86
2022-12-18T08:20:37.861Z,100314.16
2022-12-18T08:23:28.935Z,100305.00
2022-12-18T08:26:20.044Z,100301.86
2022-12-18T08:29:13.587Z,100302.85
2022-12-18T08:32:06.611Z,100295.63
2022-12-18T08:34:57.129Z,100280.63
2022-12-18T08:37:47.628Z,100267.77
2022-12-18T08:40:38.085Z,100262.02
2022-12-18T08:43:46.336Z,100247.15
2022-12-18T08:46:37.736Z,100234.66
2022-12-18T08:49:28.291Z,100225.47
2022-12-18T08:52:18.828Z,100217.52
2022-12-18T08:55:10.895Z,100205.09
2022-12-18T08:58:01.124Z,100199.41
2022-12-18T09:00:51.840Z,100206.67
2022-12-18T09:03:42.866Z,100205.47
2022-12-18T09:06:33.386Z,100198.96
2022-12-18T09:09:24.265Z,100190.84
2022-12-18T09:12:14.822Z,100188.17
2022-12-18T09:15:05.617Z,100189.75
2022-12-18T09:17:56.052Z,100180.45
2022-12-18T09:20:46.920Z,100177.02
2022-12-18T09:23:37.407Z,100178.88
2022-12-18T09:26:28.285Z,100169.05
2022-12-18T09:29:19.154Z,100156.00
2022-12-18T09:32:09.740Z,100144.86
2022-12-18T09:35:00.898Z,100133.77
2022-12-18T09:37:51.390Z,100124.00
2022-12-18T09:40:45.011Z,100110.66
2022-12-18T09:43:40.103Z,100108.00
2022-12-18T09:46:32.590Z,100094.25
2022-12-18T09:49:26.873Z,100095.33
2022-12-18T09:52:20.124Z,100087.81
2022-12-18T09:55:28.937Z,100086.39
2022-12-18T09:58:27.962Z,100081.09
2022-12-18T10:01:21.211Z,100081.49
2022-12-18T10:04:12.144Z,100074.45
2022-12-18T10:07:09.537Z,100070.96
2022-12-18T10:10:04.566Z,100068.37
2022-12-18T10:13:04.272Z,100068.31
2022-12-18T10:16:02.251Z,100069.27
2022-12-18T10:19:00.865Z,100068.54
2022-12-18T10:21:54.953Z,100064.91
2022-12-18T10:24:51.325Z,100069.20
2022-12-18T10:27:41.431Z,100067.29
2022-12-18T10:30:31.985Z,100066.42
2022-12-18T10:33:23.683Z,100063.70
2022-12-18T10:36:14.318Z,100074.13
2022-12-18T10:39:16.191Z,100069.99
2022-12-18T10:42:18.291Z,100054.63
2022-12-18T10:45:11.858Z,100057.21
2022-12-18T10:48:02.032Z,100051.61
2022-12-18T10:51:12.213Z,100046.08
2022-12-18T10:54:06.294Z,100038.70
2022-12-18T10:57:16.080Z,100027.89
2022-12-18T11:00:30.315Z,100035.70
2022-12-18T11:03:36.862Z,100033.81
2022-12-18T11:06:27.605Z,100032.09
2022-12-18T11:09:23.277Z,100032.19
2022-12-18T11:12:20.049Z,100025.01
2022-12-18T11:15:18.565Z,100006.15
2022-12-18T11:18:18.713Z,99992.56
2022-12-18T11:21:11.297Z,99983.11
2022-12-18T11:24:01.829Z,99976.01
2022-12-18T11:26:57.832Z,99966.52
2022-12-18T11:29:52.060Z,99952.66
2022-12-18T11:32:43.343Z,99945.33
2022-12-18T11:35:45.535Z,99939.86
2022-12-18T11:38:38.096Z,99930.61
2022-12-18T11:41:46.047Z,99917.15
2022-12-18T11:44:40.476Z,99905.45
2022-12-18T11:47:35.702Z,99894.92
2022-12-18T11:50:28.123Z,99893.41
2022-12-18T11:53:19.303Z,99886.97
2022-12-18T11:56:30.092Z,99867.78
2022-12-18T11:59:26.814Z,99856.67
2022-12-18T12:02:23.091Z,99850.08
2022-12-18T12:05:23.455Z,99842.65
2022-12-18T12:08:19.027Z,99832.36
2022-12-18T12:11:14.671Z,99823.22
2022-12-18T12:14:11.605Z,99821.13
2022-12-18T12:17:07.619Z,99811.01
2022-12-18T12:20:04.536Z,99797.02
2022-12-18T12:22:58.790Z,99787.84
2022-12-18T12:25:52.911Z,99787.30
2022-12-18T12:28:54.327Z,99781.95
2022-12-18T12:32:04.215Z,99774.09
2022-12-18T12:35:06.079Z,99762.36
2022-12-18T12:38:05.461Z,99758.35
2022-12-18T12:41:02.886Z,99752.42
2022-12-18T12:43:55.820Z,99737.92
2022-12-18T12:46:47.434Z,99716.38
2022-12-18T12:49:40.912Z,99708.21
2022-12-18T12:52:34.813Z,99701.70
2022-12-18T12:55:26.487Z,99693.70
2022-12-18T12:58:21.088Z,99682.55
2022-12-18T13:01:19.917Z,99681.92
2022-12-18T13:04:21.646Z,99661.96
2022-12-18T13:07:18.320Z,99655.34
2022-12-18T13:10:26.827Z,99653.34
2022-12-18T13:13:23.223Z,99641.70
2022-12-18T13:16:14.825Z,99631.67
2022-12-18T13:19:06.505Z,99616.73
2022-12-18T13:21:58.291Z,99609.00
2022-12-18T13:24:49.215Z,99613.23
2022-12-18T13:27:59.320Z,99604.73
2022-12-18T13:37:54.102Z,99576.71
2022-12-18T13:40:58.030Z,99571.06
2022-12-18T13:43:49.734Z,99568.20
2022-12-18T13:46:46.492Z,99557.73
2022-12-18T13:49:40.588Z,99559.55
2022-12-18T13:52:35.680Z,99556.64
2022-12-18T13:55:26.403Z,99550.34
2022-12-18T13:58:16.944Z,99538.74
2022-12-18T14:01:18.408Z,99541.16
2022-12-18T14:04:12.959Z,99539.80
2022-12-18T14:07:06.908Z,99526.77
2022-12-18T14:10:12.297Z,99519.33
2022-12-18T14:13:17.587Z,99525.73
2022-12-18T14:16:08.631Z,99513.77
2022-12-18T14:19:08.902Z,99509.20
2022-12-18T14:22:05.839Z,99509.27
2022-12-18T14:25:16.181Z,99517.55
2022-12-18T14:28:14.426Z,99509.87
2022-12-18T14:31:07.150Z,99508.42
2022-12-18T14:33:58.098Z,99508.94
2022-12-18T14:36:57.012Z,99505.58
2022-12-18T14:39:58.212Z,99490.45
2022-12-18T14:42:48.416Z,99470.44
2022-12-18T14:45:43.231Z,99470.67
2022-12-18T14:48:41.194Z,99470.61
2022-12-18T14:51:33.837Z,99471.83
2022-12-18T14:54:26.388Z,99466.44
2022-12-18T14:57:23.042Z,99465.44
2022-12-18T15:00:18.087Z,99460.38
2022-12-18T15:03:10.453Z,99453.64
2022-12-18T15:06:17.237Z,99449.39
2022-12-18T15:09:08.662Z,99442.34
2022-12-18T15:12:00.085Z,99436.45
2022-12-18T15:14:50.491Z,99432.67
2022-12-18T15:17:41.723Z,99440.72
2022-12-18T15:20:33.883Z,99432.96
2022-12-18T15:23:25.480Z,99431.66
2022-12-18T15:26:16.844Z,99434.51
2022-12-18T15:29:11.325Z,99438.29
2022-12-18T15:32:05.959Z,99434.08
2022-12-18T15:35:05.626Z,99436.10
2022-12-18T15:37:56.480Z,99426.98
2022-12-18T15:40:46.958Z,99413.34
2022-12-18T15:43:40.346Z,99414.61
2022-12-18T15:46:32.248Z,99413.61
2022-12-18T15:49:22.804Z,99407.31
2022-12-18T15:52:14.709Z,99402.30
2022-12-18T15:55:23.011Z,99400.08
2022-12-18T15:58:13.539Z,99400.89
2022-12-18T16:01:05.711Z,99382.33
2022-12-18T16:03:56.485Z,99370.88
2022-12-18T16:07:13.149Z,99364.27
2022-12-18T16:09:58.302Z,99352.66
2022-12-18T16:12:50.070Z,99349.95
2022-12-18T16:15:40.706Z,99344.09
2022-12-18T16:18:31.173Z,99347.03
2022-12-18T16:21:21.637Z,99348.27
2022-12-18T16:24:15.545Z,99351.57
2022-12-18T16:27:06.120Z,99349.25
2022-12-18T16:29:56.571Z,99343.55
2022-12-18T16:32:47.032Z,99338.29
2022-12-18T16:35:38.271Z,99335.92
2022-12-18T16:38:28.716Z,99336.63
2022-12-18T16:41:36.476Z,99339.27
2022-12-18T16:44:26.870Z,99339.06
2022-12-18T16:47:17.704Z,99338.84
2022-12-18T16:50:09.555Z,99343.16
2022-12-18T16:52:59.664Z,99350.91
2022-12-18T16:55:55.967Z,99349.95
2022-12-18T16:58:46.521Z,99340.61
2022-12-18T17:01:37.143Z,99328.38
2022-12-18T17:04:27.640Z,99321.64
2022-12-18T17:07:18.219Z,99322.23
2022-12-18T17:10:09.314Z,99329.50
2022-12-18T17:13:01.333Z,99320.67
2022-12-18T17:15:51.448Z,99323.27
2022-12-18T17:18:42.018Z,99318.88
2022-12-18T17:21:33.171Z,99320.19
2022-12-18T17:24:23.394Z,99317.13
2022-12-18T17:27:13.898Z,99325.20
2022-12-18T17:30:04.650Z,99325.40
2022-12-18T17:32:55.023Z,99317.63
2022-12-18T17:35:45.550Z,99313.27
2022-12-18T17:38:38.629Z,99307.54
2022-12-18T17:41:30.268Z,99303.30
2022-12-18T17:44:20.342Z,99304.15
2022-12-18T17:47:12.378Z,99304.52
2022-12-18T17:50:02.936Z,99299.84
2022-12-18T17:52:56.544Z,99294.91
2022-12-18T17:55:54.627Z,99290.49
2022-12-18T17:58:45.613Z,99290.79
2022-12-18T18:01:42.402Z,99295.98
2022-12-18T18:04:34.835Z,99291.59
2022-12-18T18:07:25.316Z,99291.73
2022-12-18T18:10:16.073Z,99287.39
2022-12-18T18:13:23.542Z,99281.72
2022-12-18T18:16:14.135Z,99283.16
2022-12-18T18:19:06.124Z,99283.23
2022-12-18T18:21:56.797Z,99279.95
2022-12-18T18:24:48.028Z,99274.70
2022-12-18T18:27:39.055Z,99267.02
2022-12-18T18:30:30.294Z,99267.36
2022-12-18T18:33:21.020Z,99270.98
2022-12-18T18:36:12.978Z,99263.77
2022-12-18T18:39:03.476Z,99256.43
2022-12-18T18:41:54.150Z,99246.80
2022-12-18T18:44:48.949Z,99236.73
2022-12-18T18:47:39.740Z,99234.30
2022-12-18T18:50:30.282Z,99234.10
2022-12-18T18:53:20.740Z,99242.46
2022-12-18T18:59:24.972Z,99239.57
2022-12-18T19:02:22.398Z,99243.44
2022-12-18T19:05:12.987Z,99241.02
2022-12-18T19:08:03.410Z,99233.11
2022-12-18T19:10:57.813Z,99231.35
2022-12-18T19:13:48.083Z,99240.13
2022-12-18T19:16:38.753Z,99239.10
2022-12-18T19:19:29.571Z,99241.36
2022-12-18T19:22:20.083Z,99240.05
2022-12-18T19:25:11.168Z,99247.50
2022-12-18T19:28:01.740Z,99241.22
2022-12-18T19:30:59.132Z,99241.46
2022-12-18T19:33:50.245Z,99238.23
2022-12-18T19:36:41.422Z,99235.42
2022-12-18T19:39:31.993Z,99231.05
2022-12-18T19:42:28.205Z,99222.40
2022-12-18T19:45:22.167Z,99215.69
2022-12-18T19:48:13.893Z,99216.04
2022-12-18T19:51:07.946Z,99214.10
2022-12-18T19:54:00.550Z,99207.23
2022-12-18T19:56:53.152Z,99194.45
2022-12-18T19:59:43.920Z,99194.44
2022-12-18T20:02:36.998Z,99202.56
2022-12-18T20:05:27.215Z,99213.03
2022-12-18T20:08:17.764Z,99206.17
2022-12-18T20:11:08.780Z,99179.70
2022-12-18T20:14:04.429Z,99163.88
2022-12-18T20:16:55.133Z,99147.08
2022-12-18T20:19:46.208Z,99134.37
2022-12-18T20:22:36.695Z,99129.77
2022-12-18T20:25:27.421Z,99129.83
2022-12-18T20:28:18.041Z,99125.09
2022-12-18T20:31:10.454Z,99117.56
2022-12-18T20:34:02.656Z,99113.87
2022-12-18T20:36:54.249Z,99113.83
2022-12-18T20:39:45.124Z,99101.13
2022-12-18T20:42:35.958Z,99100.83
2022-12-18T20:45:26.480Z,99101.52
2022-12-18T20:48:18.449Z,99103.57
2022-12-18T20:51:13.654Z,99098.29
2022-12-18T20:54:06.960Z,99100.13
2022-12-18T20:56:59.715Z,99102.95
2022-12-18T20:59:50.385Z,99099.28
2022-12-18T21:02:40.975Z,99097.99
2022-12-18T21:05:31.563Z,99084.73
2022-12-18T21:08:23.089Z,99098.75
2022-12-18T21:11:32.574Z,99092.13
2022-12-18T21:14:24.395Z,99092.42
2022-12-18T21:17:14.966Z,99092.30
2022-12-18T21:20:05.895Z,99078.66
2022-12-18T21:22:57.697Z,99068.20
2022-12-18T21:25:56.104Z,99068.71
2022-12-18T21:28:46.497Z,99063.92
2022-12-18T21:31:37.763Z,99071.58
2022-12-18T21:34:29.516Z,99077.37
2022-12-18T21:37:20.735Z,99067.33
2022-12-18T21:40:12.563Z,99064.02
2022-12-18T21:43:20.796Z,99061.79
2022-12-18T21:46:11.329Z,99060.00
2022-12-18T21:49:02.208Z,99066.63
2022-12-18T21:51:54.017Z,99071.89
2022-12-18T21:54:44.480Z,99080.63
2022-12-18T21:57:35.031Z,99076.96
2022-12-18T22:00:25.807Z,99058.27
2022-12-18T22:03:18.313Z,99061.48
2022-12-18T22:06:09.874Z,99069.19
2022-12-18T22:09:00.483Z,99071.16
2022-12-18T22:11:51.737Z,99068.08
2022-12-18T22:14:42.281Z,99075.98
2022-12-18T22:17:32.898Z,99073.29
2022-12-18T22:20:23.422Z,99071.35
2022-12-18T22:23:14.245Z,99060.11
2022-12-18T22:26:04.839Z,99056.75
2022-12-18T22:29:13.142Z,99063.38
2022-12-18T22:32:03.920Z,99059.39
2022-12-18T22:34:55.368Z,99058.23
2022-12-18T22:37:45.577Z,99044.31
2022-12-18T22:40:36.161Z,99037.23
2022-12-18T22:43:26.967Z,99042.30
2022-12-18T22:46:19.034Z,99046.80
2022-12-18T22:49:11.527Z,99041.11
2022-12-18T22:52:02.172Z,99030.06
2022-12-18T22:54:53.438Z,99014.11
2022-12-18T22:57:48.690Z,99016.41
2022-12-18T23:00:39.813Z,99030.73
2022-12-18T23:03:30.439Z,99049.10
2022-12-18T23:06:21.671Z,99045.60
2022-12-18T23:09:16.017Z,99046.32
2022-12-18T23:12:06.522Z,99044.18
2022-12-18T23:14:57.186Z,99048.44
2022-12-18T23:17:47.861Z,99051.11
2022-12-18T23:20:38.495Z,99052.80
2022-12-18T23:23:29.158Z,99051.60
2022-12-18T23:26:21.944Z,99037.91
2022-12-18T23:29:12.631Z,99035.77
2022-12-18T23:32:03.255Z,99032.56
2022-12-18T23:34:54.826Z,99036.31
2022-12-18T23:38:01.201Z,99032.67
2022-12-18T23:40:51.818Z,99024.44
2022-12-18T23:43:47.633Z,99033.20
2022-12-18T23:46:39.231Z,99032.13
2022-12-18T23:49:29.977Z,99035.32
2022-12-18T23:52:20.545Z,99039.63
2022-12-18T23:55:11.562Z,99030.94
2022-12-18T23:58:02.220Z,99033.17
